Startpagina
METAR-TAF:

METAR-TAF

Vliegvelden :

Cairns, Australië

Cairns Airport

breedte: 16-53S, lengte: 145-45E, hoogte: 3 m

Actueel weer

Dit bericht is 37 minuten geleden gemaakt, om 07:00 UTC
Wind 13 kt uit het zuidoosten
Temperatuur 28°C
Vochtigheid 70%
Druk 1009 hPa
Zicht 10 km of meer
Weinig wolken op 2800 ft
Gebroken wolken op 4000 ft

METAR: YBCS 240700Z 13013KT 9999 FEW028 BKN040 28/22 Q1009

Tijdstip: 17:37 (07:37 UTC)

Verwachting

Dit bericht is 2 uur en het 12 minuten geleden gemaakt, om 05:25 UTC
Verwachting geldig van 24 om 06 UTC tot 25 om 06 UTC
Wind 10 kt uit het oosten
Zicht 10 km of meer
Weinig wolken op 3000 ft
Van 24 om 0800 UTC
Wind 6 kt uit het zuidzuidoosten
Zicht 10 km of meer
Verspreide wolken op 2200 ft
Verspreide wolken op 3500 ft
Van 25 om 0100 UTC
Wind 10 kt uit het oostnoordoosten
Zicht 10 km of meer
Weinig wolken op 3000 ft

TAF: YBCS 240525Z 2406/2506 10010KT 9999 FEW030 FM240800 15006KT 9999 SCT022 SCT035 FM250100 07010KT 9999 FEW030

Waarnemingen en weersverwachtingen van meer dan 4000 vliegvelden (METAR en TAF).

De beschikbare stations zijn de gele en rode punten op de kaart.

Ga met uw muis naar het station om de naam te zien.

Klik dan om waarnemingen en weersverwachtingen te zien.

kaart wijzigen: klik op de groene knoppen met een zwart kruis om in te zoomen, op de groene knop met een streepje om uit te zoomen of op de groene pijlen voor aangrenzende kaarten.


METAR-TAF: